Weather observations for the past three days for
Windom Municipal Airport
Imperial (Metric)
Date Time (cdt) Wind (mph) Vis. (mi.) Weather Sky Cond. Temperature (ºF) Relative Humidity Wind Chill (°F) Heat Index (°F) Pressure Precipitation (in)
Air Dwpt 6 hour altimeter (in) sea level (mb) 1 hr 3 hr 6 hr
Max. Min.
05 22:55 NW 7 10.00 Fair CLR 35.6 24.8 65% 31 29.96 0.0
05 22:35 N 8 10.00 Partly Cloudy SCT075 37.4 24.8 60% 32 29.95 0.0
05 22:15 N 9 10.00 Partly Cloudy SCT075 39.2 24.8 56% 34 29.95 0.0
05 21:55 NW 10 10.00 Mostly Cloudy BKN075 42.8 24.8 49% 38 29.94 0.0
05 21:35 NW 9 10.00 Overcast OVC075 42.8 24.8 49% 38 29.93 0.0
05 21:15 NW 9 10.00 Mostly Cloudy BKN075 44.6 23 43% 40 29.93 0.0
05 20:55 NW 12 10.00 Partly Cloudy SCT075 44.6 21.2 39% 39 29.92 0.0
05 20:35 NW 14 10.00 Overcast OVC075 46.4 21.2 37% 41 29.91 0.0
05 20:15 NW 16 G 20 10.00 Overcast OVC075 46.4 21.2 37% 40 29.9 0.0
05 19:55 NW 15 G 21 10.00 Overcast OVC075 46.4 21.2 37% 41 29.9 0.0
05 19:35 NW 17 10.00 Overcast OVC075 48.2 21.2 34% 42 29.89 0.0
05 19:15 NW 15 10.00 Overcast OVC075 48.2 21.2 34% 43 29.89 0.0
05 18:55 NW 15 10.00 Overcast OVC075 48.2 21.2 34% 43 29.88 0.0
05 18:35 NW 16 G 22 10.00 Overcast OVC075 48.2 21.2 34% 43 29.88 0.0
05 18:15 W 21 G 26 10.00 Overcast and Breezy OVC075 48.2 21.2 34% 42 29.88 0.0
05 17:55 NW 18 10.00 Overcast OVC075 48.2 21.2 34% 42 29.87 0.0
05 17:35 NW 16 G 23 10.00 Overcast OVC075 50 21.2 32% 45 29.87 0.0
05 17:15 NW 16 G 21 10.00 Overcast OVC075 51.8 23 32% 29.87 0.0
05 16:55 NW 18 G 24 10.00 Overcast OVC075 50 21.2 32% 44 29.87 0.0
05 16:35 NW 17 G 22 10.00 Overcast OVC075 51.8 21.2 30% 29.87 0.0
05 16:15 W 15 G 24 10.00 Overcast BKN075 OVC080 51.8 21.2 30% 29.87 0.0
05 15:55 NW 15 G 23 10.00 Overcast OVC075 51.8 21.2 30% 29.87 0.0
05 15:35 NW 14 G 21 10.00 Mostly Cloudy SCT065 BKN075 51.8 23 32% 29.88 0.0
05 15:15 W 15 G 23 10.00 Overcast SCT075 OVC080 51.8 23 32% 29.88 0.0
05 14:55 W 9 10.00 Overcast BKN075 OVC085 51.8 23 32% 29.88 0.0
05 14:35 NW 14 G 22 10.00 Overcast BKN065 OVC085 51.8 23 32% 29.88 0.0
05 14:15 W 15 10.00 Mostly Cloudy BKN085 51.8 23 32% 29.88 0.0
05 13:55 NW 12 10.00 Mostly Cloudy BKN070 50 21.2 32% 46 29.88 0.0
05 13:35 NW 14 G 21 10.00 Overcast OVC070 51.8 21.2 30% 29.88 0.0
05 13:15 NW 10 G 25 10.00 Mostly Cloudy BKN070 BKN080 50 21.2 32% 46 29.88 0.0
05 12:55 W 12 G 18 10.00 Mostly Cloudy SCT070 BKN080 51.8 23 32% 29.88 0.0
05 12:35 W 10 G 20 10.00 Mostly Cloudy BKN070 50 21.2 32% 46 29.88 0.0
05 12:15 W 14 G 22 10.00 Partly Cloudy SCT070 51.8 24.8 35% 29.88 0.0
05 11:55 NW 12 G 17 10.00 Partly Cloudy SCT070 51.8 23 32% 29.87 0.0
05 11:35 NW 10 G 17 10.00 Overcast SCT060 OVC070 50 24.8 37% 46 29.88 0.0
05 11:15 NW 13 10.00 Overcast BKN060 OVC070 48.2 23 37% 43 29.88 0.0
05 10:55 NW 8 G 18 10.00 Overcast SCT060 OVC070 48.2 24.8 40% 45 29.88 0.0
05 10:35 NW 16 10.00 Mostly Cloudy SCT060 BKN070 48.2 26.6 43% 43 29.88 0.0
05 10:15 W 12 G 20 10.00 Partly Cloudy SCT050 48.2 26.6 43% 44 29.88 0.0
05 09:55 NW 10 G 17 10.00 Fair CLR 48.2 26.6 43% 44 29.87 0.0
05 09:35 W 9 10.00 Fair CLR 48.2 28.4 46% 45 29.87 0.0
05 09:15 NW 7 10.00 Fair CLR 46.4 28.4 50% 43 29.87 0.0
05 08:55 N 8 10.00 Fair CLR 44.6 26.6 49% 41 29.86 0.0
05 08:35 NW 8 10.00 Fair CLR 44.6 26.6 49% 41 29.86 0.0
05 08:15 NW 6 10.00 Fair CLR 44.6 30.2 57% 42 29.85 0.0
05 07:55 NW 5 10.00 Fair CLR 42.8 30.2 61% 41 29.85 0.0
05 07:35 Calm 10.00 Fair CLR 39.2 30.2 70% 29.84 0.0
05 07:15 Calm 10.00 Fair CLR 37.4 28.4 70% 29.84 0.0
05 06:55 W 3 10.00 Fair CLR 35.6 28.4 75% 29.83 0.0
05 06:35 W 5 10.00 Fair CLR 33.8 28.4 81% 30 29.82 0.0
05 06:15 W 7 10.00 Fair CLR 32 26.6 80% 26 29.81 0.0
05 05:55 NW 7 10.00 Fair CLR 32 26.6 80% 26 29.81 0.0
05 05:35 W 6 10.00 Fair CLR 32 26.6 80% 27 29.8 0.0
05 05:15 W 6 10.00 Fair CLR 32 26.6 80% 27 29.8 0.0
05 04:55 W 5 10.00 Fair CLR 33.8 26.6 75% 30 29.8 0.0
05 04:35 W 5 10.00 Fair CLR 35.6 26.6 70% 32 29.8 0.0
05 04:15 SW 3 10.00 Fair CLR 35.6 26.6 70% 29.79 0.0
05 03:55 SW 3 10.00 Fair CLR 33.8 26.6 75% 29.79 0.0
05 03:35 W 5 10.00 Fair CLR 35.6 26.6 70% 32 29.78 0.0
05 03:15 W 6 10.00 Fair CLR 35.6 26.6 70% 31 29.78 0.0
05 02:55 W 6 10.00 Fair CLR 35.6 26.6 70% 31 29.78 0.0
05 02:35 W 3 10.00 Fair CLR 37.4 26.6 65% 29.78 0.0
05 02:15 W 6 10.00 Fair CLR 35.6 26.6 70% 31 29.78 0.0
05 01:55 W 6 10.00 Fair CLR 35.6 26.6 70% 31 29.78 0.0
05 01:35 W 5 10.00 Fair CLR 37.4 26.6 65% 34 29.78 0.0
05 01:15 W 5 10.00 Fair CLR 37.4 26.6 65% 34 29.78 0.0
05 00:55 W 7 10.00 Fair CLR 37.4 26.6 65% 33 29.78 0.0
05 00:35 W 6 10.00 Fair CLR 37.4 26.6 65% 33 29.78 0.0
05 00:15 W 5 10.00 Fair CLR 39.2 26.6 61% 36 29.78 0.0
04 23:55 W 3 10.00 Fair CLR 39.2 26.6 61% 29.78 0.0
04 23:35 SW 3 10.00 Fair CLR 42.8 26.6 53% 29.78 0.0
04 23:15 W 5 10.00 Fair CLR 42.8 26.6 53% 41 29.77 0.0
04 22:55 W 3 10.00 Fair CLR 42.8 26.6 53% 29.77 0.0
04 22:35 NW 3 10.00 Fair CLR 44.6 24.8 46% 29.77 0.0
04 22:15 NW 6 10.00 Fair CLR 42.8 26.6 53% 40 29.78 0.0
04 21:55 NW 7 10.00 Fair CLR 42.8 26.6 53% 39 29.77 0.0
04 21:35 N 9 10.00 Fair CLR 44.6 26.6 49% 40 29.77 0.0
04 21:15 N 7 10.00 Fair CLR 44.6 26.6 49% 41 29.75 0.0
04 20:55 NW 9 10.00 Fair CLR 48.2 24.8 40% 45 29.74 0.0
04 20:35 NW 13 10.00 Fair CLR 48.2 24.8 40% 43 29.73 0.0
04 20:15 NW 14 10.00 Fair CLR 51.8 24.8 35% 29.73 0.0
04 19:55 NW 18 10.00 Fair CLR 51.8 24.8 35% 29.72 0.0
04 19:35 NW 21 G 28 10.00 Fair and Breezy CLR 53.6 24.8 33% 29.71 0.0
04 19:15 NW 20 G 30 10.00 Fair CLR 53.6 26.6 35% 29.71 0.0
04 18:55 NW 20 G 29 10.00 Fair CLR 53.6 26.6 35% 29.7 0.0
04 18:35 NW 24 G 31 10.00 Fair and Breezy CLR 53.6 26.6 35% 29.7 0.0
04 18:15 NW 24 G 33 10.00 Fair and Breezy CLR 55.4 28.4 36% 29.7 0.0
04 17:55 NW 21 G 33 10.00 Fair and Breezy CLR 55.4 28.4 36% 29.69 0.0
04 17:35 NW 24 G 32 10.00 Fair and Breezy CLR 55.4 28.4 36% 29.68 0.0
04 17:15 NW 23 G 32 10.00 Fair and Breezy CLR 55.4 28.4 36% 29.68 0.0
04 16:55 NW 26 G 35 10.00 Fair and Windy CLR 57.2 28.4 33% 29.66 0.0
04 16:35 NW 26 G 36 10.00 Fair and Windy CLR 60.8 28.4 29% 29.65 0.0
04 16:15 W 25 G 35 10.00 Fair and Breezy CLR 60.8 28.4 29% 29.65 0.0
04 15:55 W 26 G 35 10.00 Fair and Windy CLR 60.8 28.4 29% 29.65 0.0
04 15:35 NW 25 G 37 10.00 Fair and Breezy CLR 59 28.4 31% 29.65 0.0
04 15:15 NW 22 G 32 10.00 Fair and Breezy CLR 60.8 28.4 29% 29.65 0.0
04 14:55 NW 26 G 33 10.00 Fair and Windy CLR 62.6 28.4 27% 29.64 0.0
04 14:35 NW 23 G 32 10.00 Fair and Breezy CLR 62.6 28.4 27% 29.64 0.0
04 14:15 NW 26 G 33 10.00 Fair and Windy CLR 60.8 26.6 27% 29.63 0.0
04 13:55 NW 24 G 39 10.00 Fair and Breezy CLR 62.6 24.8 24% 29.62 0.0
04 13:35 NW 23 G 31 10.00 Fair and Breezy CLR 62.6 26.6 25% 29.62 0.0
04 13:15 NW 25 G 35 10.00 Fair and Breezy CLR 62.6 28.4 27% 29.62 0.0
04 12:55 NW 23 G 36 10.00 Fair and Breezy CLR 62.6 33.8 34% 29.61 0.0
04 12:35 NW 24 G 32 10.00 Fair and Breezy CLR 62.6 30.2 30% 29.6 0.0
04 12:15 NW 23 G 31 10.00 Fair and Breezy CLR 62.6 33.8 34% 29.59 0.0
04 11:55 NW 26 G 32 10.00 Fair and Windy CLR 62.6 30.2 30% 29.59 0.0
04 11:35 NW 21 G 32 10.00 Fair and Breezy CLR 62.6 33.8 34% 29.58 0.0
04 11:15 NW 22 G 30 10.00 Fair and Breezy CLR 62.6 33.8 34% 29.58 0.0
04 10:55 NW 16 G 29 10.00 Fair CLR 62.6 33.8 34% 29.57 0.0
04 10:35 NW 21 G 26 10.00 Fair and Breezy CLR 62.6 33.8 34% 29.56 0.0
04 10:15 NW 25 G 29 10.00 Fair and Breezy CLR 60.8 32 34% 29.56 0.0
04 09:55 NW 20 G 29 10.00 Fair CLR 57.2 33.8 41% 29.57 0.0
04 09:35 NW 23 G 29 10.00 Fair and Breezy CLR 59 32 36% 29.56 0.0
04 09:15 NW 24 10.00 Fair and Breezy CLR 59 33.8 39% 29.56 0.0
04 08:55 NW 21 G 28 10.00 Fair and Breezy CLR 60.8 39.2 45% 29.56 0.0
04 08:35 NW 14 10.00 Fair CLR 59 41 51% 29.55 0.0
04 08:15 NW 16 G 22 10.00 Fair CLR 59 39.2 48% 29.54 0.0
04 07:55 W 23 10.00 Fair and Breezy CLR 60.8 39.2 45% 29.54 0.0
04 07:35 W 15 G 23 10.00 Fair CLR 57.2 39.2 51% 29.53 0.0
04 07:15 W 14 10.00 Fair CLR 57.2 39.2 51% 29.52 0.0
04 06:55 SW 14 10.00 Fair CLR 57.2 39.2 51% 29.5 0.0
04 06:35 SW 14 G 21 10.00 Fair CLR 57.2 39.2 51% 29.49 0.0
04 06:15 SW 16 G 22 10.00 Fair CLR 55.4 37.4 51% 29.49 0.0
04 05:55 SW 16 G 21 10.00 Fair CLR 55.4 37.4 51% 29.49 0.0
04 05:35 SW 14 10.00 Fair CLR 55.4 37.4 51% 29.5 0.0
04 05:15 SW 15 10.00 Fair CLR 53.6 37.4 54% 29.51 0.0
04 04:55 SW 16 10.00 Fair CLR 53.6 37.4 54% 29.52 0.0
04 04:35 SW 10 10.00 Fair CLR 51.8 37.4 58% 29.53 0.0
04 04:15 SW 8 10.00 Fair CLR 51.8 37.4 58% 29.53 0.0
04 03:55 SW 10 10.00 Fair CLR 53.6 35.6 51% 29.54 0.0
04 03:35 SW 10 10.00 Fair CLR 53.6 35.6 51% 29.54 0.0
04 03:15 SW 10 10.00 Fair CLR 53.6 37.4 54% 29.55 0.0
04 02:55 S 9 10.00 Fair CLR 53.6 37.4 54% 29.56 0.0
04 02:15 SW 8 10.00 Fair CLR 53.6 37.4 54% 29.58 0.0
04 01:55 SW 8 10.00 Fair CLR 53.6 37.4 54% 29.59 0.0
04 01:35 S 10 10.00 Fair CLR 53.6 37.4 54% 29.6 0.0
04 01:15 SW 9 10.00 Fair CLR 55.4 37.4 51% 29.61 0.0
04 00:55 SW 9 10.00 Fair CLR 55.4 37.4 51% 29.62 0.0
04 00:36 SW 9 10.00 Fair CLR 55.4 37.4 51% 29.62 0.0
04 00:16 SW 8 10.00 Fair CLR 55.4 35.6 47% 29.64 0.0
03 23:55 SW 7 10.00 Fair CLR 53.6 35.6 51% 29.64 0.0
03 23:35 W 5 10.00 Fair CLR 55.4 35.6 47% 29.65 0.0
03 23:15 W 6 10.00 Fair CLR 53.6 35.6 51% 29.66 0.0
03 22:55 SW 8 10.00 Fair CLR 59 33.8 39% 29.66 0.0
03 22:35 S 7 10.00 Fair CLR 57.2 33.8 41% 29.68 0.0
03 22:15 SW 6 10.00 Fair CLR 59 30.2 34% 29.69 0.0
03 21:55 SW 6 10.00 Fair CLR 59 30.2 34% 29.7 0.0
03 21:35 SW 3 10.00 Fair CLR 62.6 28.4 27% 29.7 0.0
03 21:15 W 5 10.00 Fair CLR 60.8 30.2 31% 29.7 0.0
03 20:55 W 7 10.00 Fair CLR 60.8 30.2 31% 29.7 0.0
03 20:35 SW 7 10.00 Fair CLR 62.6 30.2 30% 29.7 0.0
03 20:15 W 8 10.00 Fair CLR 64.4 30.2 28% 29.7 0.0
03 19:55 W 8 10.00 Fair CLR 68 26.6 21% 29.7 0.0
03 19:35 W 13 10.00 Fair CLR 69.8 26.6 20% 29.7 0.0
03 19:15 W 15 10.00 Fair CLR 71.6 26.6 19% 29.71 0.0
03 18:55 W 16 10.00 Fair CLR 71.6 30.2 22% 29.71 0.0
03 18:35 W 12 10.00 Fair CLR 71.6 28.4 20% 29.71 0.0
03 18:15 W 13 G 20 10.00 Fair CLR 71.6 30.2 22% 29.72 0.0
03 17:55 W 12 G 24 10.00 Fair CLR 71.6 30.2 22% 29.72 0.0
03 17:35 W 14 10.00 Fair CLR 71.6 32 23% 29.72 0.0
03 17:15 W 13 G 20 10.00 Fair CLR 71.6 33.8 25% 29.73 0.0
03 16:55 NW 10 G 20 10.00 Fair CLR 71.6 33.8 25% 29.74 0.0
03 16:35 NW 13 G 18 10.00 Fair CLR 71.6 32 23% 29.74 0.0
03 16:15 NW 13 G 25 10.00 Fair CLR 71.6 32 23% 29.75 0.0
03 15:55 NW 10 G 22 10.00 Fair CLR 71.6 33.8 25% 29.76 0.0
03 15:35 W 16 G 26 10.00 Fair CLR 71.6 32 23% 29.77 0.0
03 15:15 NW 18 G 24 10.00 Fair CLR 69.8 33.8 27% 29.77 0.0
03 14:55 NW 14 G 25 10.00 Fair CLR 69.8 33.8 27% 29.78 0.0
03 14:35 NW 8 G 30 10.00 Fair CLR 69.8 33.8 27% 29.79 0.0
03 14:15 W 22 G 29 10.00 Fair and Breezy CLR 69.8 35.6 29% 29.79 0.0
03 13:55 NW 13 G 22 10.00 Fair CLR 68 33.8 28% 29.8 0.0
03 13:35 NW 20 G 26 10.00 Fair CLR 66.2 35.6 32% 29.8 0.0
03 13:15 NW 18 G 25 10.00 Fair CLR 66.2 35.6 32% 29.81 0.0
03 12:55 NW 20 G 26 10.00 Fair CLR 66.2 35.6 32% 29.82 0.0
03 12:35 NW 15 G 22 10.00 Fair CLR 66.2 35.6 32% 29.82 0.0
03 12:15 NW 24 G 32 10.00 Fair and Breezy CLR 66.2 35.6 32% 29.82 0.0
03 11:55 NW 24 G 30 10.00 Fair and Breezy CLR 66.2 35.6 32% 29.82 0.0
03 11:35 NW 21 G 30 10.00 Fair and Breezy CLR 64.4 37.4 37% 29.82 0.0
03 11:15 NW 21 G 28 10.00 Fair and Breezy CLR 64.4 37.4 37% 29.82 0.0
03 10:55 NW 21 G 28 10.00 Fair and Breezy CLR 64.4 39.2 40% 29.83 0.0
03 10:35 NW 21 G 28 10.00 Fair and Breezy CLR 62.6 41 45% 29.82 0.0
03 10:15 NW 18 G 25 10.00 Fair CLR 62.6 41 45% 29.82 0.0
03 09:55 NW 18 G 26 10.00 Fair CLR 62.6 39.2 42% 29.82 0.0
03 09:35 NW 23 10.00 Fair and Breezy CLR 60.8 39.2 45% 29.81 0.0
03 09:15 NW 22 G 26 10.00 Fair and Breezy CLR 59 37.4 45% 29.81 0.0
03 08:55 NW 21 G 28 10.00 Fair and Breezy CLR 57.2 37.4 48% 29.8 0.0
03 08:35 NW 23 G 29 10.00 Fair and Breezy CLR 55.4 37.4 51% 29.8 0.0
03 08:15 NW 18 G 28 10.00 Fair CLR 55.4 37.4 51% 29.79 0.0
03 07:55 NW 21 G 25 10.00 Fair and Breezy CLR 53.6 37.4 54% 29.78 0.0
03 07:35 NW 21 G 28 10.00 Fair and Breezy CLR 53.6 37.4 54% 29.77 0.0
03 07:15 NW 18 G 25 10.00 Fair CLR 53.6 37.4 54% 29.76 0.0
03 06:55 NW 18 10.00 Fair CLR 51.8 35.6 54% 29.75 0.0
03 06:35 NW 15 10.00 Fair CLR 51.8 35.6 54% 29.74 0.0
03 06:15 NW 14 10.00 Fair CLR 51.8 35.6 54% 29.73 0.0
03 05:55 NW 13 G 17 10.00 Fair CLR 51.8 35.6 54% 29.73 0.0
03 05:35 W 9 10.00 Fair CLR 51.8 37.4 58% 29.73 0.0
03 05:15 W 12 10.00 Fair CLR 51.8 37.4 58% 29.73 0.0
03 04:55 W 9 10.00 Fair CLR 51.8 35.6 54% 29.73 0.0
03 04:35 W 9 10.00 Fair CLR 51.8 35.6 54% 29.73 0.0
03 04:15 W 9 10.00 Fair CLR 53.6 35.6 51% 29.73 0.0
03 03:55 W 10 10.00 Fair CLR 55.4 33.8 44% 29.73 0.0
03 03:35 SW 12 10.00 Partly Cloudy SCT100 57.2 33.8 41% 29.73 0.0
03 03:15 SW 14 G 21 10.00 Partly Cloudy SCT100 60.8 33.8 36% 29.73 0.0
03 02:55 SW 15 10.00 Mostly Cloudy BKN090 60.8 33.8 36% 29.73 0.0
03 02:35 SW 13 10.00 Overcast SCT075 OVC090 60.8 33.8 36% 29.73 0.0
03 02:15 SW 14 G 18 10.00 Overcast OVC100 57.2 33.8 41% 29.74 0.0
03 01:55 SW 10 10.00 Mostly Cloudy BKN100 57.2 33.8 41% 29.74 0.0
03 01:35 S 14 10.00 Mostly Cloudy BKN090 57.2 32 39% 29.74 0.0
03 01:15 S 15 G 20 10.00 Mostly Cloudy BKN090 57.2 30.2 36% 29.75 0.0
03 00:55 S 12 G 22 10.00 Partly Cloudy SCT110 59 30.2 34% 29.75 0.0
03 00:35 S 13 10.00 Mostly Cloudy BKN110 59 28.4 31% 29.76 0.0
03 00:15 S 13 G 17 10.00 Mostly Cloudy SCT080 BKN110 60.8 28.4 29% 29.77 0.0
02 23:55 S 7 10.00 Partly Cloudy SCT110 59 30.2 34% 29.78 0.0
02 23:35 S 8 10.00 Overcast OVC100 60.8 30.2 31% 29.79 0.0
Date Time (cdt) Wind (mph) Vis. (mi.) Weather Sky Cond. Air Dwpt Max. Min. Relative Humidity Wind Chill (°F) Heat Index (°F) altimeter (in) sea level (mb) 1 hr 3 hr 6 hr
6 hour
Temperature (ºF) Pressure Precipitation (in)